Time;durP1;ratioP1;P1;durP2;ratioP2;P2;SDS_P1;SDS_P2;PMS_P1;PMS_P2;Temp;Humidity;BMP_temperature;BMP_pressure;BME280_temperature;BME280_humidity;BME280_pressure;Samples;Min_cycle;Max_cycle;Signal;HPM_P1;HPM_P2
2021/06/15 00:00:43;;;;;;;3.27;2.97;;;16.60;99.90;;;;;;5034394;28;20177;-65
2021/06/15 00:03:09;;;;;;;3.80;3.10;;;16.60;99.90;;;;;;5034548;28;20181;-68
2021/06/15 00:05:35;;;;;;;3.40;3.10;;;16.50;99.90;;;;;;5033917;28;20624;-66
2021/06/15 00:08:00;;;;;;;3.33;3.03;;;16.40;99.90;;;;;;5016253;28;20200;-66
2021/06/15 00:10:26;;;;;;;4.43;4.03;;;16.40;99.90;;;;;;5034576;28;20636;-66
2021/06/15 00:12:54;;;;;;;2.80;2.60;;;16.40;99.90;;;;;;5034260;28;20266;-65
2021/06/15 00:15:21;;;;;;;4.60;3.30;;;16.40;99.90;;;;;;5034538;28;20449;-66
2021/06/15 00:17:48;;;;;;;2.80;2.60;;;16.30;99.90;;;;;;5033769;28;20423;-65
2021/06/15 00:20:14;;;;;;;3.23;2.93;;;16.30;99.90;;;;;;5033901;28;20420;-66
2021/06/15 00:22:42;;;;;;;3.13;2.93;;;16.30;99.90;;;;;;5033037;28;20424;-66
2021/06/15 00:25:09;;;;;;;3.17;2.93;;;16.20;99.90;;;;;;5033641;28;20424;-65
2021/06/15 00:27:35;;;;;;;3.70;3.40;;;16.30;99.90;;;;;;5033531;28;20469;-66
2021/06/15 00:30:01;;;;;;;3.30;2.90;;;16.20;99.90;;;;;;5034036;28;20552;-66
2021/06/15 00:32:27;;;;;;;3.23;2.93;;;16.20;99.90;;;;;;5033896;28;20181;-66
2021/06/15 00:34:53;;;;;;;3.30;2.90;;;16.10;99.90;;;;;;4992206;28;20872;-66
2021/06/15 00:37:19;;;;;;;3.20;2.67;;;16.00;99.90;;;;;;4992067;28;20214;-65
2021/06/15 00:39:46;;;;;;;2.80;2.60;;;15.90;99.90;;;;;;4992567;28;20312;-66
2021/06/15 00:42:12;;;;;;;3.37;2.70;;;15.90;99.90;;;;;;4992590;28;20422;-66
2021/06/15 00:44:38;;;;;;;3.10;2.80;;;15.80;99.90;;;;;;4992610;28;20420;-66
2021/06/15 00:47:04;;;;;;;3.53;2.90;;;15.70;99.90;;;;;;4991975;28;20564;-65
2021/06/15 00:49:35;;;;;;;5.10;3.50;;;15.70;99.90;;;;;;4992949;28;20231;-66
2021/06/15 00:52:01;;;;;;;2.87;2.50;;;15.70;99.90;;;;;;4992058;28;20429;-65
2021/06/15 00:54:26;;;;;;;2.97;2.77;;;15.70;99.90;;;;;;4992306;28;20487;-65
2021/06/15 00:56:53;;;;;;;2.93;2.70;;;15.60;99.90;;;;;;4991652;28;20444;-66
2021/06/15 00:59:19;;;;;;;3.17;2.67;;;15.60;99.90;;;;;;4991949;28;20184;-66
2021/06/15 01:01:45;;;;;;;3.40;2.50;;;15.60;99.90;;;;;;4992103;28;20421;-66
2021/06/15 01:04:12;;;;;;;3.20;2.90;;;15.50;99.90;;;;;;4992004;28;20525;-66
2021/06/15 01:07:02;;;;;;;4.00;2.80;;;15.50;99.90;;;;;;5025122;28;20436;-66
2021/06/15 01:10:03;;;;;;;2.77;2.43;;;15.50;99.90;;;;;;5033296;28;20477;-66
2021/06/15 01:12:57;;;;;;;2.93;2.73;;;15.50;99.90;;;;;;4981420;28;20430;-66
2021/06/15 01:16:10;;;;;;;2.70;2.40;;;15.50;99.90;;;;;;5033818;28;20415;-66
2021/06/15 01:18:41;;;;;;;4.20;2.60;;;15.50;99.90;;;;;;4939308;28;20450;-66
2021/06/15 01:21:10;;;;;;;4.83;2.80;;;15.50;99.90;;;;;;5017395;28;20779;-66
2021/06/15 01:23:41;;;;;;;2.87;2.60;;;15.40;99.90;;;;;;5033373;28;20754;-66
2021/06/15 01:26:34;;;;;;;2.63;2.43;;;15.50;99.90;;;;;;5032803;28;20403;-66
2021/06/15 01:29:09;;;;;;;3.30;3.00;;;15.40;99.90;;;;;;5033226;28;20964;-66
2021/06/15 01:31:41;;;;;;;3.97;2.80;;;15.40;99.90;;;;;;5033446;28;20393;-66
2021/06/15 01:34:35;;;;;;;3.17;2.87;;;15.30;99.90;;;;;;5035538;28;20406;-66
2021/06/15 01:37:06;;;;;;;3.73;2.80;;;15.20;99.90;;;;;;5032879;28;20469;-66
2021/06/15 01:39:44;;;;;;;2.53;2.33;;;15.10;99.90;;;;;;5037153;28;20427;-66
2021/06/15 01:42:26;;;;;;;3.07;2.87;;;15.10;99.90;;;;;;5036966;28;20402;-66
2021/06/15 01:44:58;;;;;;;2.90;2.70;;;15.00;99.90;;;;;;5037156;28;20410;-66
2021/06/15 01:47:26;;;;;;;3.33;2.97;;;15.00;99.90;;;;;;5036599;28;20500;-66
2021/06/15 01:49:56;;;;;;;3.20;2.90;;;15.00;99.90;;;;;;5036867;28;20465;-66
2021/06/15 01:52:28;;;;;;;3.10;2.70;;;15.00;99.90;;;;;;5036891;28;20460;-66
2021/06/15 01:54:55;;;;;;;3.10;2.90;;;15.00;99.90;;;;;;5036930;28;20407;-66
2021/06/15 01:57:22;;;;;;;2.47;2.27;;;14.90;99.90;;;;;;5036283;28;20425;-66
2021/06/15 01:59:51;;;;;;;2.80;2.60;;;15.00;99.90;;;;;;5019088;28;20947;-66
2021/06/15 02:02:17;;;;;;;2.27;2.07;;;15.00;99.90;;;;;;5036707;28;20943;-66
2021/06/15 02:04:48;;;;;;;3.43;3.20;;;15.00;99.90;;;;;;5036322;28;20424;-66
2021/06/15 02:07:18;;;;;;;2.80;2.60;;;15.00;99.90;;;;;;5036129;28;20434;-66
2021/06/15 02:09:48;;;;;;;3.00;2.80;;;14.90;99.90;;;;;;5018737;28;20982;-66
2021/06/15 02:12:18;;;;;;;3.07;2.70;;;14.90;99.90;;;;;;5036460;28;20394;-65
2021/06/15 02:14:44;;;;;;;2.80;2.60;;;14.80;99.90;;;;;;5036775;28;20404;-66
2021/06/15 02:17:13;;;;;;;3.07;2.80;;;14.60;99.90;;;;;;5035942;28;20431;-66
2021/06/15 02:19:42;;;;;;;3.73;2.53;;;14.60;99.90;;;;;;5036376;28;20504;-66
2021/06/15 02:22:12;;;;;;;4.73;2.77;;;14.50;99.90;;;;;;5036257;28;20410;-66
2021/06/15 02:24:42;;;;;;;2.40;2.20;;;14.50;99.90;;;;;;5036512;28;20425;-65
2021/06/15 02:27:11;;;;;;;3.83;3.05;;;14.50;99.90;;;;;;5035825;28;20433;-65
2021/06/15 02:29:38;;;;;;;2.93;2.57;;;14.40;99.90;;;;;;5036104;28;20194;-66
2021/06/15 02:32:05;;;;;;;2.50;2.30;;;14.40;99.90;;;;;;5018453;28;20410;-66
2021/06/15 02:34:36;;;;;;;3.90;2.73;;;14.40;99.90;;;;;;5036105;28;20422;-65
2021/06/15 02:37:06;;;;;;;4.07;2.90;;;14.40;99.90;;;;;;5035805;28;20429;-65
2021/06/15 02:39:36;;;;;;;2.50;2.30;;;14.40;99.90;;;;;;5036021;28;20784;-65
2021/06/15 02:42:07;;;;;;;5.50;2.60;;;14.40;99.90;;;;;;5035954;28;20436;-65
2021/06/15 02:44:38;;;;;;;4.07;3.30;;;14.40;99.90;;;;;;5035258;28;20410;-65
2021/06/15 02:47:05;;;;;;;4.95;3.28;;;14.40;99.90;;;;;;5035273;28;20953;-65
2021/06/15 02:49:37;;;;;;;2.30;2.10;;;14.30;99.90;;;;;;5035442;28;20290;-65
2021/06/15 02:52:17;;;;;;;2.50;2.13;;;14.30;99.90;;;;;;5036115;28;20699;-66
2021/06/15 02:54:51;;;;;;;4.83;2.90;;;14.20;99.90;;;;;;5035847;28;20755;-65
2021/06/15 02:57:18;;;;;;;5.27;3.60;;;14.20;99.90;;;;;;5035181;28;20442;-65
2021/06/15 02:59:44;;;;;;;3.83;3.10;;;14.20;99.90;;;;;;5035584;28;20401;-65
2021/06/15 03:02:09;;;;;;;2.73;2.53;;;14.20;99.90;;;;;;5017787;28;20201;-65
2021/06/15 03:04:35;;;;;;;3.23;2.47;;;14.10;99.90;;;;;;5035057;28;20433;-65
2021/06/15 03:07:01;;;;;;;3.40;3.10;;;14.10;99.90;;;;;;5034696;28;20207;-65
2021/06/15 03:09:27;;;;;;;3.43;2.80;;;14.10;99.90;;;;;;5035342;28;20549;-65
2021/06/15 03:12:21;;;;;;;2.80;2.30;;;14.10;99.90;;;;;;5035013;28;20193;-65
2021/06/15 03:14:56;;;;;;;3.30;3.00;;;14.00;99.90;;;;;;5032371;28;20675;-66
2021/06/15 03:17:24;;;;;;;7.43;3.28;;;14.00;99.90;;;;;;5034910;28;20260;-65
2021/06/15 03:20:09;;;;;;;2.92;2.72;;;14.00;99.90;;;;;;5035173;28;20182;-65
2021/06/15 03:22:50;;;;;;;3.58;3.00;;;13.90;99.90;;;;;;5035159;28;20187;-66
2021/06/15 03:25:20;;;;;;;3.20;2.90;;;13.90;99.90;;;;;;5035288;28;20170;-66
2021/06/15 03:27:55;;;;;;;3.45;3.25;;;13.80;99.90;;;;;;5034815;28;20428;-65
2021/06/15 03:30:22;;;;;;;3.17;2.95;;;13.80;99.90;;;;;;5035268;28;20179;-65
2021/06/15 03:33:03;;;;;;;3.50;3.20;;;13.80;99.90;;;;;;5034547;28;20528;-65
2021/06/15 03:35:31;;;;;;;3.58;3.28;;;13.80;99.90;;;;;;5017997;28;20186;-65
2021/06/15 03:38:04;;;;;;;3.88;3.25;;;13.90;99.90;;;;;;5034560;28;20583;-66
2021/06/15 03:40:34;;;;;;;4.88;3.60;;;13.90;99.90;;;;;;5034902;28;20186;-65
2021/06/15 03:43:01;;;;;;;2.95;2.75;;;14.10;99.90;;;;;;5034672;28;20178;-65
2021/06/15 03:45:31;;;;;;;3.92;3.53;;;14.30;99.90;;;;;;5034600;28;20224;-65
2021/06/15 03:47:59;;;;;;;2.83;2.53;;;14.40;99.90;;;;;;5034612;28;20652;-65
2021/06/15 03:50:25;;;;;;;3.40;2.70;;;14.50;99.90;;;;;;5034550;28;20401;-66
2021/06/15 03:52:55;;;;;;;3.40;3.10;;;14.40;99.90;;;;;;5034723;28;20179;-65
2021/06/15 03:55:23;;;;;;;3.40;3.10;;;14.40;99.90;;;;;;5034606;28;20267;-66
2021/06/15 03:57:50;;;;;;;3.80;3.50;;;14.30;99.90;;;;;;5033570;28;20446;-66
2021/06/15 04:00:20;;;;;;;10.60;3.93;;;14.30;99.90;;;;;;5034487;28;20601;-66
2021/06/15 04:02:50;;;;;;;7.75;3.45;;;14.30;99.90;;;;;;5034631;28;20422;-66
2021/06/15 04:05:17;;;;;;;4.30;3.00;;;14.30;99.90;;;;;;5033706;28;20210;-66
2021/06/15 04:07:45;;;;;;;3.20;2.73;;;14.30;99.90;;;;;;5033632;28;20441;-65
2021/06/15 04:10:13;;;;;;;3.80;2.87;;;14.40;99.90;;;;;;5034186;28;20541;-65
2021/06/15 04:12:39;;;;;;;4.30;3.50;;;14.50;99.90;;;;;;5034050;28;20437;-65
2021/06/15 04:15:08;;;;;;;3.80;3.00;;;14.70;99.90;;;;;;5034209;28;20406;-65
2021/06/15 04:17:37;;;;;;;2.87;2.67;;;14.90;99.90;;;;;;5033435;28;20457;-66
2021/06/15 04:20:05;;;;;;;3.50;2.37;;;15.30;99.90;;;;;;5033362;28;20826;-66
2021/06/15 04:22:34;;;;;;;8.30;3.40;;;15.70;99.90;;;;;;5034151;28;20465;-66
2021/06/15 04:25:05;;;;;;;3.03;2.50;;;16.10;99.90;;;;;;5033817;28;20652;-66
2021/06/15 04:27:31;;;;;;;2.67;2.37;;;16.70;99.90;;;;;;5033345;28;20441;-66
2021/06/15 04:29:57;;;;;;;3.40;2.87;;;17.30;99.90;;;;;;5033833;28;20423;-67
2021/06/15 04:32:45;;;;;;;2.07;1.97;;;18.00;99.90;;;;;;5033928;28;20407;-66
2021/06/15 04:35:12;;;;;;;2.43;2.20;;;18.50;99.90;;;;;;5033972;28;20764;-66
2021/06/15 04:37:38;;;;;;;3.33;2.53;;;18.80;99.90;;;;;;5033305;28;20452;-66
2021/06/15 04:40:29;;;;;;;3.03;2.60;;;19.00;99.90;;;;;;5033617;28;20509;-67
2021/06/15 04:42:54;;;;;;;3.00;2.80;;;18.90;99.90;;;;;;5033401;28;20433;-66
2021/06/15 04:45:25;;;;;;;2.83;2.63;;;18.60;99.90;;;;;;5033668;28;20509;-67
2021/06/15 04:48:01;;;;;;;7.07;3.83;;;18.40;99.90;;;;;;5015326;28;20703;-67
2021/06/15 04:50:28;;;;;;;4.13;2.70;;;18.20;99.90;;;;;;5033489;28;20374;-67
2021/06/15 04:52:57;;;;;;;3.90;2.80;;;17.90;99.90;;;;;;5033538;28;20440;-67
2021/06/15 04:55:27;;;;;;;3.30;2.90;;;17.70;99.90;;;;;;5033603;28;20405;-67
2021/06/15 04:57:55;;;;;;;3.37;2.90;;;17.50;99.90;;;;;;5033154;28;20422;-67
2021/06/15 05:00:24;;;;;;;7.13;2.90;;;17.50;99.90;;;;;;5015710;28;20520;-67
2021/06/15 05:02:51;;;;;;;6.03;3.00;;;17.60;99.90;;;;;;5033314;28;20428;-67
2021/06/15 05:05:19;;;;;;;3.53;3.10;;;17.60;99.90;;;;;;5033075;28;20405;-67
2021/06/15 05:07:46;;;;;;;3.03;2.83;;;17.70;99.90;;;;;;5014712;28;20882;-66
2021/06/15 05:10:13;;;;;;;4.00;2.93;;;17.70;99.90;;;;;;5032951;28;20455;-66
2021/06/15 05:12:45;;;;;;;3.77;3.47;;;17.70;99.90;;;;;;5033012;28;20421;-67
2021/06/15 05:15:12;;;;;;;4.93;3.60;;;17.80;99.90;;;;;;5015463;28;20413;-67
2021/06/15 05:17:45;;;;;;;10.83;3.40;;;17.90;99.90;;;;;;5032888;28;20425;-66
2021/06/15 05:20:13;;;;;;;4.07;3.20;;;17.90;99.90;;;;;;5015603;28;20426;-66
2021/06/15 05:22:46;;;;;;;7.70;2.90;;;18.10;99.90;;;;;;5033752;28;20430;-66
2021/06/15 05:25:15;;;;;;;3.47;3.17;;;18.20;99.90;;;;;;5032730;28;20429;-67
2021/06/15 05:27:41;;;;;;;2.60;2.40;;;18.30;99.90;;;;;;5018178;28;20443;-66
2021/06/15 05:30:07;;;;;;;5.60;3.40;;;18.50;99.90;;;;;;5021004;28;20551;-66
2021/06/15 05:32:33;;;;;;;3.53;2.93;;;18.60;99.90;;;;;;5029058;28;20494;-66
2021/06/15 05:34:59;;;;;;;3.00;2.73;;;18.70;99.90;;;;;;5032951;28;20498;-67
2021/06/15 05:37:26;;;;;;;3.13;2.83;;;18.80;99.90;;;;;;5023862;28;20197;-66
2021/06/15 05:39:52;;;;;;;2.87;2.67;;;18.90;99.90;;;;;;5014897;28;20442;-66
2021/06/15 05:42:18;;;;;;;5.63;3.73;;;19.10;99.90;;;;;;5013115;28;20414;-68
2021/06/15 05:44:43;;;;;;;3.60;3.30;;;19.40;99.90;;;;;;5017251;28;20915;-68
2021/06/15 05:47:10;;;;;;;3.53;2.30;;;19.80;99.90;;;;;;5016459;28;20226;-68
2021/06/15 05:49:36;;;;;;;6.07;2.83;;;20.00;99.90;;;;;;5013185;28;20190;-68
2021/06/15 05:52:06;;;;;;;4.10;2.97;;;20.30;99.90;;;;;;5030245;28;20417;-68
2021/06/15 05:54:32;;;;;;;2.80;2.60;;;20.80;99.90;;;;;;5030106;28;20985;-65
2021/06/15 05:56:57;;;;;;;2.60;2.40;;;21.20;99.90;;;;;;5012174;28;20535;-65
2021/06/15 05:59:24;;;;;;;2.50;2.30;;;21.60;99.60;;;;;;5031862;28;20413;-65
2021/06/15 06:01:49;;;;;;;3.00;2.70;;;22.00;98.80;;;;;;5032157;28;20201;-66
2021/06/15 06:04:18;;;;;;;3.07;2.77;;;22.20;98.50;;;;;;5032814;28;20412;-65
2021/06/15 06:09:28;;;;;;;3.67;3.30;;;22.10;97.70;;;;;;5032714;28;20505;-66
2021/06/15 06:11:53;;;;;;;3.80;2.80;;;21.80;99.30;;;;;;5014971;28;20919;-66
2021/06/15 06:14:19;;;;;;;2.57;2.37;;;21.80;99.20;;;;;;5032666;28;20185;-65
2021/06/15 06:16:45;;;;;;;2.43;2.23;;;21.70;98.80;;;;;;5031996;28;20212;-66
2021/06/15 06:19:13;;;;;;;4.50;2.90;;;21.50;98.80;;;;;;5032771;28;20173;-66
2021/06/15 06:21:40;;;;;;;3.03;2.83;;;21.40;99.10;;;;;;5035338;28;20923;-66
2021/06/15 06:24:07;;;;;;;3.10;2.90;;;21.50;98.60;;;;;;5036289;28;20405;-66
2021/06/15 06:26:33;;;;;;;4.63;3.23;;;21.40;98.20;;;;;;5017946;28;20505;-66
2021/06/15 06:28:59;;;;;;;2.67;2.47;;;21.40;98.70;;;;;;5036217;28;20956;-68
2021/06/15 06:31:25;;;;;;;2.33;2.23;;;21.50;97.70;;;;;;5035606;28;20420;-67
2021/06/15 06:33:51;;;;;;;2.47;2.37;;;21.50;98.20;;;;;;5035986;28;20424;-66
2021/06/15 06:36:17;;;;;;;4.30;3.87;;;21.70;97.50;;;;;;5035587;28;20986;-66
2021/06/15 06:38:48;;;;;;;4.53;3.30;;;21.70;97.60;;;;;;5035789;28;20237;-63
2021/06/15 06:41:15;;;;;;;2.60;2.40;;;21.80;97.40;;;;;;5036046;28;20200;-63
2021/06/15 06:43:40;;;;;;;4.50;4.10;;;21.70;97.00;;;;;;5036037;28;20771;-63
2021/06/15 06:46:06;;;;;;;3.00;2.80;;;21.80;96.80;;;;;;5017614;28;20439;-66
2021/06/15 06:48:32;;;;;;;3.73;2.30;;;21.80;97.20;;;;;;5035577;28;20249;-68
2021/06/15 06:50:57;;;;;;;3.33;2.67;;;21.80;96.80;;;;;;5035616;28;20174;-65
2021/06/15 06:53:23;;;;;;;2.37;2.10;;;22.00;97.00;;;;;;5035596;28;20174;-67
2021/06/15 06:55:48;;;;;;;2.57;2.33;;;22.20;96.40;;;;;;5035194;28;20208;-67
2021/06/15 06:58:14;;;;;;;2.40;2.20;;;22.40;96.60;;;;;;5035422;28;20190;-67
2021/06/15 07:00:40;;;;;;;3.73;2.50;;;22.50;95.80;;;;;;5017854;28;20175;-68
2021/06/15 07:03:05;;;;;;;2.60;2.43;;;22.60;95.60;;;;;;5035485;28;20640;-65
2021/06/15 07:05:31;;;;;;;4.93;2.67;;;22.70;95.80;;;;;;5035445;28;20172;-65
2021/06/15 07:07:57;;;;;;;3.00;2.80;;;22.70;94.80;;;;;;5035203;28;20653;-66
2021/06/15 07:10:22;;;;;;;2.67;2.47;;;22.80;95.30;;;;;;5035537;28;20335;-66
2021/06/15 07:12:49;;;;;;;3.03;2.73;;;22.90;94.80;;;;;;5035090;28;20560;-65
2021/06/15 07:15:16;;;;;;;2.83;2.60;;;23.00;94.70;;;;;;5035339;28;20253;-64
2021/06/15 07:17:42;;;;;;;5.93;2.33;;;23.20;94.80;;;;;;5034781;28;20774;-65
2021/06/15 07:20:09;;;;;;;2.43;2.23;;;23.30;94.00;;;;;;5017365;28;20416;-65
2021/06/15 07:22:35;;;;;;;3.73;2.20;;;23.40;94.20;;;;;;5034959;28;20429;-65
2021/06/15 07:25:02;;;;;;;2.63;2.40;;;24.00;94.30;;;;;;5035282;28;20790;-65
2021/06/15 07:27:36;;;;;;;6.40;4.10;;;24.80;93.10;;;;;;5034689;28;20516;-67
2021/06/15 07:30:04;;;;;;;2.93;2.70;;;25.60;92.20;;;;;;5034820;28;20459;-66
2021/06/15 07:32:30;;;;;;;2.57;2.40;;;26.60;91.10;;;;;;5034503;28;20752;-66
2021/06/15 07:34:56;;;;;;;2.40;2.20;;;27.50;87.30;;;;;;5034903;28;20407;-66
2021/06/15 07:37:22;;;;;;;3.23;2.97;;;28.50;83.70;;;;;;5033859;28;20621;-66
2021/06/15 07:39:48;;;;;;;3.80;2.27;;;29.60;78.40;;;;;;5034492;28;20212;-67
2021/06/15 07:42:13;;;;;;;2.77;2.57;;;30.60;78.00;;;;;;5017048;28;20416;-66
2021/06/15 07:44:39;;;;;;;2.80;2.60;;;31.80;72.40;;;;;;5034803;28;20201;-67
2021/06/15 07:47:05;;;;;;;2.33;2.23;;;32.90;67.00;;;;;;5016867;28;20182;-67
2021/06/15 07:49:31;;;;;;;2.67;2.47;;;34.30;62.40;;;;;;5034646;28;20236;-67
2021/06/15 07:51:57;;;;;;;2.83;2.70;;;35.50;59.10;;;;;;5032359;28;20175;-68
2021/06/15 07:54:22;;;;;;;2.63;2.43;;;36.00;56.20;;;;;;5023686;28;20176;-67
2021/06/15 07:56:49;;;;;;;3.47;3.17;;;36.50;54.00;;;;;;5021742;28;20398;-66
2021/06/15 07:59:14;;;;;;;2.70;2.60;;;36.90;53.30;;;;;;5005772;28;20179;-67
2021/06/15 08:01:40;;;;;;;2.67;2.57;;;37.30;51.30;;;;;;5023269;28;20878;-66
2021/06/15 08:04:07;;;;;;;3.20;3.00;;;38.10;50.20;;;;;;5022306;28;20182;-66
2021/06/15 08:06:35;;;;;;;3.00;2.80;;;38.50;49.40;;;;;;5014818;28;20166;-67
2021/06/15 08:09:00;;;;;;;2.70;2.60;;;38.40;48.10;;;;;;5032900;28;20449;-67
2021/06/15 08:11:26;;;;;;;2.90;2.60;;;38.50;47.90;;;;;;5032823;28;20776;-67
2021/06/15 08:13:52;;;;;;;3.80;3.60;;;39.00;46.90;;;;;;5031935;28;20666;-67
2021/06/15 08:16:19;;;;;;;2.70;2.60;;;39.70;46.00;;;;;;5022241;28;20186;-68
2021/06/15 08:18:45;;;;;;;3.10;2.90;;;40.00;44.80;;;;;;5021990;28;20198;-67
2021/06/15 08:21:11;;;;;;;3.77;3.03;;;40.20;44.50;;;;;;5023839;28;20433;-68
2021/06/15 08:23:37;;;;;;;3.63;3.30;;;39.90;43.50;;;;;;5023165;28;20175;-68
2021/06/15 08:26:03;;;;;;;3.70;3.13;;;39.20;43.50;;;;;;5021959;28;20930;-65
2021/06/15 08:28:28;;;;;;;3.00;2.80;;;39.00;43.60;;;;;;5023435;28;20244;-67
2021/06/15 08:30:54;;;;;;;3.03;2.83;;;39.30;43.10;;;;;;5022060;28;20258;-67
2021/06/15 08:33:20;;;;;;;3.70;3.50;;;39.40;42.70;;;;;;5022676;28;20178;-65
2021/06/15 08:35:45;;;;;;;3.00;2.87;;;39.20;42.60;;;;;;5005404;28;20171;-66
2021/06/15 08:38:11;;;;;;;2.63;2.53;;;39.20;42.40;;;;;;5023529;28;20252;-68
2021/06/15 08:40:37;;;;;;;3.70;3.50;;;39.30;42.10;;;;;;5027817;28;20170;-66
2021/06/15 08:43:03;;;;;;;2.80;2.60;;;39.40;41.80;;;;;;5032965;28;20470;-67
2021/06/15 08:45:28;;;;;;;2.97;2.77;;;39.60;42.20;;;;;;5033788;28;20166;-67
2021/06/15 08:47:55;;;;;;;3.10;2.80;;;39.90;41.30;;;;;;5033421;28;20278;-66
2021/06/15 08:50:24;;;;;;;3.10;2.90;;;39.70;40.00;;;;;;5033667;28;20525;-65
2021/06/15 08:52:51;;;;;;;3.00;2.80;;;39.60;40.40;;;;;;5033349;28;20429;-65
2021/06/15 08:55:19;;;;;;;2.90;2.77;;;39.30;40.70;;;;;;5033323;28;20405;-65
2021/06/15 08:58:09;;;;;;;3.30;3.10;;;39.10;41.10;;;;;;5032871;28;20429;-66
2021/06/15 09:00:34;;;;;;;3.30;3.10;;;38.70;42.90;;;;;;5032803;28;20494;-65
2021/06/15 09:03:00;;;;;;;3.07;2.90;;;38.80;42.70;;;;;;5033501;28;20472;-65
2021/06/15 09:05:26;;;;;;;3.30;3.10;;;38.60;43.20;;;;;;5033303;28;20256;-65
2021/06/15 09:08:04;;;;;;;4.07;3.87;;;38.50;43.00;;;;;;5032723;28;20556;-66
2021/06/15 09:10:31;;;;;;;3.40;3.20;;;38.90;43.30;;;;;;5033520;28;20181;-66
2021/06/15 09:12:57;;;;;;;2.90;2.80;;;39.20;42.70;;;;;;5033269;28;20401;-65
2021/06/15 09:15:23;;;;;;;3.60;3.37;;;39.40;40.90;;;;;;5033223;28;20757;-65
2021/06/15 09:17:49;;;;;;;3.20;3.00;;;40.00;40.50;;;;;;5032870;28;20431;-65
2021/06/15 09:20:27;;;;;;;2.93;2.83;;;40.00;39.10;;;;;;5033389;28;20205;-65
2021/06/15 09:23:07;;;;;;;3.13;3.03;;;39.70;39.60;;;;;;5032943;28;20432;-65
2021/06/15 09:25:35;;;;;;;3.20;3.00;;;39.70;38.90;;;;;;5033072;28;20486;-65
2021/06/15 09:28:49;;;;;;;3.10;2.90;;;39.60;38.70;;;;;;5033031;28;20449;-65
2021/06/15 09:31:14;;;;;;;2.97;2.77;;;39.40;39.50;;;;;;4933866;29;20421;-65
2021/06/15 09:33:46;;;;;;;4.13;3.83;;;39.00;39.80;;;;;;5021047;28;20933;-65
2021/06/15 09:36:15;;;;;;;2.87;2.67;;;39.20;40.60;;;;;;5032269;28;20648;-66
2021/06/15 09:38:54;;;;;;;2.70;2.60;;;39.40;39.60;;;;;;5032806;28;20464;-65
2021/06/15 09:41:44;;;;;;;3.70;3.50;;;39.70;38.20;;;;;;5033172;28;20814;-65
2021/06/15 09:44:15;;;;;;;2.90;2.80;;;39.70;38.30;;;;;;5033248;28;20388;-66
2021/06/15 09:46:49;;;;;;;2.40;2.30;;;39.60;39.50;;;;;;5032481;28;20555;-65
2021/06/15 09:49:41;;;;;;;2.73;2.63;;;39.60;37.90;;;;;;5032821;28;20452;-65
2021/06/15 09:52:26;;;;;;;3.10;2.90;;;39.60;38.00;;;;;;5032889;28;20401;-65
2021/06/15 09:54:56;;;;;;;2.70;2.50;;;39.30;36.90;;;;;;5034926;28;20501;-65
2021/06/15 09:57:23;;;;;;;2.43;2.33;;;38.80;37.80;;;;;;5036610;28;20435;-64
2021/06/15 10:00:16;;;;;;;2.70;2.60;;;38.80;37.60;;;;;;5036866;28;20796;-65
2021/06/15 10:02:59;;;;;;;6.83;4.73;;;39.00;37.70;;;;;;5037312;28;20771;-65
2021/06/15 10:05:36;;;;;;;3.00;2.80;;;39.00;38.70;;;;;;5036425;28;20455;-66
2021/06/15 10:08:03;;;;;;;2.70;2.60;;;39.40;38.90;;;;;;5036539;28;20891;-67
2021/06/15 10:10:32;;;;;;;2.97;2.77;;;39.20;38.50;;;;;;5036555;28;20926;-66
2021/06/15 10:12:58;;;;;;;3.13;2.93;;;39.00;38.10;;;;;;5036506;28;20408;-66
2021/06/15 10:15:26;;;;;;;2.50;2.40;;;39.00;38.70;;;;;;5018786;28;20562;-66
2021/06/15 10:17:52;;;;;;;2.80;2.60;;;38.80;37.90;;;;;;5036002;28;20440;-65
2021/06/15 10:20:21;;;;;;;2.37;2.27;;;38.60;38.20;;;;;;5035730;28;20483;-66
2021/06/15 10:22:48;;;;;;;2.80;2.70;;;38.50;38.70;;;;;;5036545;28;20162;-65
2021/06/15 10:25:15;;;;;;;2.23;2.13;;;38.40;37.70;;;;;;5036043;28;20418;-65
2021/06/15 10:27:42;;;;;;;5.87;2.50;;;38.10;38.10;;;;;;5035688;28;20897;-65
2021/06/15 10:30:10;;;;;;;2.50;2.40;;;37.50;38.20;;;;;;5036148;28;20390;-66
2021/06/15 10:32:53;;;;;;;2.20;2.10;;;37.30;38.80;;;;;;5036286;28;20919;-66
2021/06/15 10:35:44;;;;;;;2.67;2.57;;;37.20;40.70;;;;;;5036317;28;20566;-65
2021/06/15 10:38:11;;;;;;;2.70;2.40;;;37.30;40.60;;;;;;5035669;28;20498;-65
2021/06/15 10:40:40;;;;;;;2.20;2.07;;;37.20;39.00;;;;;;5035983;28;20479;-66
2021/06/15 10:43:18;;;;;;;3.43;2.40;;;37.20;39.90;;;;;;5035937;28;20390;-63
2021/06/15 10:45:57;;;;;;;2.80;2.50;;;36.80;39.40;;;;;;5035674;28;20412;-65
2021/06/15 10:48:25;;;;;;;2.40;2.13;;;36.70;39.40;;;;;;5035513;28;20494;-65
2021/06/15 10:50:52;;;;;;;3.40;2.87;;;36.40;38.80;;;;;;5035167;28;20421;-66
2021/06/15 10:53:31;;;;;;;1.93;1.83;;;36.20;38.90;;;;;;5035811;28;20413;-66
2021/06/15 10:55:57;;;;;;;2.40;2.30;;;36.00;38.60;;;;;;5035366;28;20414;-66
2021/06/15 10:58:32;;;;;;;2.43;2.30;;;36.20;39.30;;;;;;5035393;28;20898;-65
2021/06/15 11:01:12;;;;;;;2.90;2.70;;;36.20;39.80;;;;;;5035821;28;20618;-64
2021/06/15 11:03:44;;;;;;;2.07;1.97;;;36.40;39.40;;;;;;5035341;28;20399;-65
2021/06/15 11:06:11;;;;;;;3.00;2.40;;;36.30;38.60;;;;;;5034464;28;20398;-65
2021/06/15 11:08:36;;;;;;;2.40;2.20;;;35.90;39.60;;;;;;5035478;28;20411;-64
2021/06/15 11:11:05;;;;;;;3.50;2.60;;;35.70;39.80;;;;;;5034979;28;20439;-64
2021/06/15 11:13:50;;;;;;;2.80;2.60;;;35.30;40.30;;;;;;5034982;28;20186;-65
2021/06/15 11:16:40;;;;;;;2.13;2.03;;;34.60;39.90;;;;;;5016839;28;20424;-65
2021/06/15 11:19:12;;;;;;;2.03;1.93;;;33.80;39.80;;;;;;5017483;28;20906;-65
2021/06/15 11:21:52;;;;;;;2.13;1.97;;;32.80;41.90;;;;;;5035405;28;20405;-65
2021/06/15 11:24:47;;;;;;;9.83;2.37;;;32.20;42.20;;;;;;5035012;28;20909;-65
2021/06/15 11:27:12;;;;;;;3.13;2.00;;;31.70;43.30;;;;;;5034373;28;20441;-65
2021/06/15 11:29:42;;;;;;;1.77;1.67;;;31.40;46.10;;;;;;5035007;28;20918;-65
2021/06/15 11:32:27;;;;;;;2.23;2.03;;;31.30;47.00;;;;;;5035437;28;20312;-65
2021/06/15 11:34:57;;;;;;;2.37;2.17;;;31.20;45.60;;;;;;5034815;28;20428;-65
2021/06/15 11:37:32;;;;;;;2.40;2.30;;;31.00;48.30;;;;;;5034498;28;20436;-64
2021/06/15 11:40:30;;;;;;;3.47;2.83;;;30.90;47.10;;;;;;5034762;28;20463;-65
2021/06/15 11:43:08;;;;;;;2.50;2.17;;;30.80;47.00;;;;;;5034760;28;20408;-65
2021/06/15 11:45:51;;;;;;;2.40;2.20;;;30.50;46.40;;;;;;5034265;28;20474;-64
2021/06/15 11:48:35;;;;;;;2.00;1.90;;;30.30;46.30;;;;;;5034841;28;20420;-65
2021/06/15 11:51:07;;;;;;;2.30;1.63;;;30.10;46.60;;;;;;5035058;28;20898;-65
2021/06/15 11:53:40;;;;;;;1.47;1.37;;;30.00;47.50;;;;;;5034637;28;20829;-66
2021/06/15 11:56:11;;;;;;;1.37;1.23;;;29.90;44.60;;;;;;5034251;28;20818;-65
2021/06/15 11:58:43;;;;;;;2.40;2.10;;;29.80;43.30;;;;;;5034513;28;20827;-66
2021/06/15 12:01:12;;;;;;;1.97;1.70;;;29.60;44.90;;;;;;5034219;28;20431;-64
2021/06/15 12:03:42;;;;;;;1.50;1.40;;;29.60;48.00;;;;;;5034393;28;20439;-63
2021/06/15 12:06:10;;;;;;;1.20;1.20;;;29.60;46.20;;;;;;5033888;28;20447;-64
2021/06/15 12:08:37;;;;;;;2.20;1.77;;;29.60;46.40;;;;;;5034431;28;20454;-65
2021/06/15 12:11:08;;;;;;;1.40;1.30;;;29.60;48.00;;;;;;5016543;28;20922;-65
2021/06/15 12:13:35;;;;;;;1.27;1.00;;;29.70;47.80;;;;;;5034239;28;20416;-66
2021/06/15 12:16:29;;;;;;;3.60;2.60;;;29.90;47.30;;;;;;5015489;28;20434;-64
2021/06/15 12:18:57;;;;;;;1.87;1.77;;;30.20;46.30;;;;;;5032672;28;20451;-64
2021/06/15 12:21:32;;;;;;;1.70;1.60;;;30.30;45.20;;;;;;5033908;28;20925;-64
2021/06/15 12:24:07;;;;;;;1.70;1.60;;;30.20;45.40;;;;;;5033911;28;20858;-65
2021/06/15 12:26:41;;;;;;;1.10;1.10;;;30.00;44.60;;;;;;5033577;28;20909;-65
2021/06/15 12:29:09;;;;;;;1.43;1.33;;;30.00;46.80;;;;;;5034140;28;20418;-65
2021/06/15 12:31:35;;;;;;;1.47;1.37;;;30.00;44.80;;;;;;5033667;28;20890;-65
2021/06/15 12:34:06;;;;;;;1.53;1.43;;;30.10;45.50;;;;;;5033978;28;20410;-65
2021/06/15 12:36:40;;;;;;;1.30;1.30;;;30.20;45.80;;;;;;5033341;28;20400;-64
2021/06/15 12:39:17;;;;;;;1.73;1.63;;;30.20;45.40;;;;;;5033589;28;21006;-64
2021/06/15 12:41:49;;;;;;;1.80;1.70;;;30.10;45.90;;;;;;5033708;28;20424;-64
2021/06/15 12:44:15;;;;;;;1.70;1.60;;;30.10;47.30;;;;;;5033512;28;20400;-65
2021/06/15 12:46:42;;;;;;;1.87;1.77;;;29.90;48.20;;;;;;5033210;28;20417;-64
2021/06/15 12:49:21;;;;;;;2.07;1.97;;;29.80;47.00;;;;;;5033885;28;20510;-64
2021/06/15 12:51:55;;;;;;;2.50;1.80;;;29.70;47.20;;;;;;5015905;28;20440;-64
2021/06/15 12:54:40;;;;;;;2.00;1.90;;;29.60;46.90;;;;;;5033162;28;20455;-63
2021/06/15 12:57:25;;;;;;;1.97;1.87;;;29.60;47.20;;;;;;5032732;28;20408;-64
2021/06/15 12:59:59;;;;;;;1.70;1.60;;;29.50;47.10;;;;;;5033497;28;20807;-64
2021/06/15 13:02:26;;;;;;;2.10;2.00;;;29.60;46.80;;;;;;5033348;28;20408;-64
2021/06/15 13:04:59;;;;;;;1.83;1.73;;;29.70;49.50;;;;;;5033200;28;20408;-64
2021/06/15 13:07:27;;;;;;;1.83;1.73;;;29.80;48.90;;;;;;5032670;28;20877;-64